Time;durP1;ratioP1;P1;durP2;ratioP2;P2;SDS_P1;SDS_P2;PMS_P1;PMS_P2;Temp;Humidity;BMP_temperature;BMP_pressure;BME280_temperature;BME280_humidity;BME280_pressure;Samples;Min_cycle;Max_cycle;Signal;HPM_P1;HPM_P2
2020/12/02 00:00:35;;;;;;;1.33;1.23;;;9.10;76.20;;;;;;5124640;27;20047;-45
2020/12/02 00:03:16;;;;;;;1.02;0.80;;;9.10;76.10;;;;;;5124952;28;20028;-46
2020/12/02 00:05:47;;;;;;;1.30;1.05;;;9.00;76.10;;;;;;5124415;28;20031;-45
2020/12/02 00:08:16;;;;;;;1.15;1.05;;;9.10;76.20;;;;;;5086394;28;20047;-45
2020/12/02 00:10:42;;;;;;;1.65;1.55;;;9.00;76.10;;;;;;5104610;28;20032;-46
2020/12/02 00:13:14;;;;;;;2.05;1.10;;;9.00;76.20;;;;;;5104118;28;20028;-45
2020/12/02 00:15:40;;;;;;;1.83;1.15;;;9.00;76.10;;;;;;5118418;28;20052;-45
2020/12/02 00:18:06;;;;;;;3.27;1.23;;;9.00;76.10;;;;;;5104436;28;20048;-47
2020/12/02 00:20:33;;;;;;;2.20;1.25;;;9.00;76.20;;;;;;5136621;27;20100;-45
2020/12/02 00:22:59;;;;;;;1.38;1.27;;;9.00;76.20;;;;;;5145316;27;20016;-45
2020/12/02 00:25:25;;;;;;;1.77;1.20;;;9.00;76.10;;;;;;5145308;27;20467;-47
2020/12/02 00:27:51;;;;;;;1.77;1.38;;;8.90;76.10;;;;;;5132096;27;20027;-45
2020/12/02 00:30:18;;;;;;;1.70;1.40;;;8.90;76.10;;;;;;5124762;28;20118;-45
2020/12/02 00:32:45;;;;;;;2.47;1.30;;;8.90;76.10;;;;;;5124406;28;20023;-45
2020/12/02 00:35:14;;;;;;;2.63;1.38;;;8.90;76.10;;;;;;5124763;28;20299;-44
2020/12/02 00:37:40;;;;;;;2.00;1.25;;;8.90;76.10;;;;;;5093105;28;20050;-45
2020/12/02 00:40:07;;;;;;;1.40;1.30;;;8.90;76.10;;;;;;5104045;28;20024;-45
2020/12/02 00:42:33;;;;;;;1.77;1.30;;;8.90;76.10;;;;;;5103796;28;20540;-45
2020/12/02 00:44:59;;;;;;;1.65;1.20;;;8.80;76.10;;;;;;5104078;28;20024;-46
2020/12/02 00:47:26;;;;;;;1.63;1.45;;;8.80;76.10;;;;;;5103927;28;20020;-45
2020/12/02 00:49:53;;;;;;;1.40;0.98;;;8.80;76.20;;;;;;5115212;27;20031;-45
2020/12/02 00:52:20;;;;;;;2.50;1.40;;;8.80;76.00;;;;;;5124327;28;20522;-45
2020/12/02 00:54:46;;;;;;;2.88;1.50;;;8.80;76.10;;;;;;5124057;28;20408;-46
2020/12/02 00:57:14;;;;;;;1.73;1.25;;;8.80;76.10;;;;;;5131751;27;20056;-46
2020/12/02 00:59:41;;;;;;;3.17;1.30;;;8.80;76.10;;;;;;5109604;27;20023;-46
2020/12/02 01:02:20;;;;;;;1.45;1.30;;;8.80;76.20;;;;;;5110371;28;20016;-45
2020/12/02 01:04:46;;;;;;;1.33;0.98;;;8.80;76.10;;;;;;5105620;28;20031;-46
2020/12/02 01:07:13;;;;;;;1.70;1.60;;;8.70;76.10;;;;;;5092756;28;20028;-45
2020/12/02 01:09:39;;;;;;;2.70;1.35;;;8.70;76.10;;;;;;5103672;28;20468;-45
2020/12/02 01:12:06;;;;;;;2.00;1.40;;;8.70;76.10;;;;;;5103764;28;20040;-46
2020/12/02 01:14:32;;;;;;;1.63;1.40;;;8.70;76.10;;;;;;5118877;28;20072;-45
2020/12/02 01:16:59;;;;;;;1.00;1.00;;;8.70;76.20;;;;;;5119058;28;20289;-45
2020/12/02 01:19:29;;;;;;;2.10;1.30;;;8.70;76.20;;;;;;5116954;27;20282;-45
2020/12/02 01:22:04;;;;;;;3.08;1.52;;;8.70;76.20;;;;;;5144738;27;20034;-45
2020/12/02 01:25:09;;;;;;;3.05;1.58;;;8.60;76.10;;;;;;5122427;28;20027;-45
2020/12/02 01:27:41;;;;;;;1.75;1.40;;;8.60;76.10;;;;;;5100617;28;20094;-46
2020/12/02 01:30:12;;;;;;;1.50;1.20;;;8.60;76.20;;;;;;5122350;28;20023;-46
2020/12/02 01:32:38;;;;;;;1.25;1.10;;;8.60;76.20;;;;;;5089445;28;20058;-46
2020/12/02 01:35:04;;;;;;;1.70;1.33;;;8.60;76.20;;;;;;5105602;28;20073;-45
2020/12/02 01:37:32;;;;;;;2.22;1.20;;;8.60;76.20;;;;;;5088650;28;20360;-46
2020/12/02 01:40:01;;;;;;;1.50;1.17;;;8.50;76.10;;;;;;5122989;28;20027;-46
2020/12/02 01:42:27;;;;;;;1.60;1.30;;;8.50;76.10;;;;;;5129180;28;20073;-46
2020/12/02 01:44:54;;;;;;;1.50;1.08;;;8.50;76.10;;;;;;5110474;28;20031;-47
2020/12/02 01:48:07;;;;;;;1.45;1.27;;;8.50;76.10;;;;;;5124235;28;20027;-46
2020/12/02 01:50:33;;;;;;;1.60;1.23;;;8.50;76.20;;;;;;5053349;28;20664;-45
2020/12/02 01:53:19;;;;;;;2.35;1.40;;;8.50;76.10;;;;;;5053536;28;20092;-45
2020/12/02 01:55:59;;;;;;;1.52;1.30;;;8.40;76.20;;;;;;5038184;28;20116;-46
2020/12/02 01:58:37;;;;;;;1.50;1.30;;;8.40;76.20;;;;;;5036820;28;20124;-46
2020/12/02 02:01:10;;;;;;;1.50;1.40;;;8.40;76.20;;;;;;5036822;28;20037;-46
2020/12/02 02:03:37;;;;;;;2.17;1.40;;;8.40;76.20;;;;;;5052808;28;20029;-46
2020/12/02 02:06:19;;;;;;;2.10;1.48;;;8.40;76.20;;;;;;5054210;28;20051;-46
2020/12/02 02:08:45;;;;;;;2.65;1.30;;;8.40;76.20;;;;;;5056668;28;20061;-45
2020/12/02 02:11:18;;;;;;;1.58;1.45;;;8.40;76.30;;;;;;5040365;28;20045;-46
2020/12/02 02:14:02;;;;;;;1.35;1.25;;;8.40;76.20;;;;;;5055619;28;20026;-46
2020/12/02 02:16:34;;;;;;;2.60;1.50;;;8.30;76.20;;;;;;5039775;28;20048;-46
2020/12/02 02:19:01;;;;;;;2.00;1.30;;;8.30;76.20;;;;;;5043259;28;20161;-46
2020/12/02 02:21:29;;;;;;;1.67;1.50;;;8.30;76.30;;;;;;5098825;28;20036;-46
2020/12/02 02:23:56;;;;;;;1.50;1.40;;;8.30;76.20;;;;;;5123014;28;20020;-46
2020/12/02 02:26:28;;;;;;;1.52;1.40;;;8.30;76.20;;;;;;5123585;28;20042;-45
2020/12/02 02:29:11;;;;;;;1.60;1.48;;;8.30;76.30;;;;;;5125875;28;20018;-46
2020/12/02 02:31:57;;;;;;;1.50;1.40;;;8.20;76.90;;;;;;5127759;28;20019;-45
2020/12/02 02:34:23;;;;;;;1.60;1.50;;;8.20;76.20;;;;;;5102648;28;20076;-45
2020/12/02 02:36:49;;;;;;;1.50;1.30;;;8.20;76.20;;;;;;5083985;28;20035;-46
2020/12/02 02:39:16;;;;;;;1.98;1.40;;;8.20;76.30;;;;;;5106345;27;20061;-46
2020/12/02 02:41:42;;;;;;;1.73;1.38;;;8.20;76.30;;;;;;5132213;27;20430;-45
2020/12/02 02:44:10;;;;;;;1.53;1.43;;;8.20;76.20;;;;;;5127288;27;20066;-45
2020/12/02 02:46:36;;;;;;;1.63;1.50;;;8.20;76.30;;;;;;5126426;27;20051;-45
2020/12/02 02:49:03;;;;;;;1.50;1.30;;;8.10;76.30;;;;;;5131233;27;20095;-46
2020/12/02 02:51:29;;;;;;;1.70;1.60;;;8.10;76.20;;;;;;5107953;28;20028;-45
2020/12/02 02:53:56;;;;;;;1.80;1.42;;;8.10;76.30;;;;;;5126114;27;20096;-45
2020/12/02 02:56:22;;;;;;;1.50;1.40;;;8.10;76.30;;;;;;5128110;27;20077;-45
2020/12/02 02:58:48;;;;;;;2.20;1.40;;;8.10;76.30;;;;;;5129918;27;20027;-47
2020/12/02 03:01:14;;;;;;;1.63;1.50;;;8.10;76.30;;;;;;5131041;27;20797;-46
2020/12/02 03:03:40;;;;;;;1.80;1.50;;;8.10;76.30;;;;;;5128807;27;20031;-46
2020/12/02 03:06:07;;;;;;;1.40;1.25;;;8.10;76.40;;;;;;5125293;27;20088;-46
2020/12/02 03:08:33;;;;;;;1.50;1.40;;;8.00;76.40;;;;;;5106007;28;20020;-45
2020/12/02 03:11:01;;;;;;;1.20;1.08;;;8.00;77.20;;;;;;5105619;28;20322;-46
2020/12/02 03:13:32;;;;;;;1.55;1.45;;;8.00;76.40;;;;;;5087566;28;20079;-45
2020/12/02 03:16:00;;;;;;;2.20;1.35;;;8.00;76.40;;;;;;5085844;28;20047;-46
2020/12/02 03:18:26;;;;;;;1.75;1.52;;;8.00;76.50;;;;;;5084047;28;20027;-45
2020/12/02 03:20:57;;;;;;;3.05;1.40;;;8.00;76.40;;;;;;5122932;28;20066;-45
2020/12/02 03:23:24;;;;;;;1.70;1.60;;;8.00;76.50;;;;;;5122484;28;20030;-45
2020/12/02 03:25:50;;;;;;;1.98;1.50;;;7.90;76.40;;;;;;5107383;28;20020;-46
2020/12/02 03:28:16;;;;;;;1.40;1.25;;;7.90;76.50;;;;;;5095008;28;20118;-51
2020/12/02 03:30:43;;;;;;;1.70;1.60;;;7.90;76.40;;;;;;5087394;28;20024;-45
2020/12/02 03:33:10;;;;;;;1.63;1.52;;;7.90;76.50;;;;;;5105386;28;20024;-46
2020/12/02 03:35:36;;;;;;;2.03;1.50;;;7.90;76.50;;;;;;5089449;28;20092;-46
2020/12/02 03:38:03;;;;;;;1.90;1.70;;;7.90;76.50;;;;;;5092514;28;20019;-46
2020/12/02 03:40:29;;;;;;;1.40;1.30;;;7.90;76.60;;;;;;5106062;28;20055;-45
2020/12/02 03:42:56;;;;;;;1.75;1.58;;;7.80;76.50;;;;;;5105125;28;20047;-46
2020/12/02 03:45:22;;;;;;;1.75;1.45;;;7.80;76.50;;;;;;5104841;28;20024;-45
2020/12/02 03:47:49;;;;;;;1.92;1.52;;;7.80;76.60;;;;;;5104615;28;20039;-45
2020/12/02 03:50:15;;;;;;;1.90;1.70;;;7.80;76.60;;;;;;5118189;28;20023;-46
2020/12/02 03:52:41;;;;;;;1.67;1.45;;;7.80;76.60;;;;;;5125524;28;20267;-47
2020/12/02 03:55:08;;;;;;;2.10;1.52;;;7.80;76.60;;;;;;5124966;28;20555;-46
2020/12/02 03:57:34;;;;;;;1.92;1.70;;;7.80;76.70;;;;;;5125483;28;20042;-45
2020/12/02 04:00:01;;;;;;;2.23;1.60;;;7.80;76.60;;;;;;5125337;28;20498;-44
2020/12/02 04:02:27;;;;;;;1.63;1.40;;;7.70;76.60;;;;;;5106594;28;20288;-46
2020/12/02 04:04:53;;;;;;;3.08;1.50;;;7.70;76.70;;;;;;5103528;28;20028;-46
2020/12/02 04:07:19;;;;;;;1.50;1.33;;;7.70;76.70;;;;;;5105791;28;20797;-44
2020/12/02 04:09:46;;;;;;;2.28;1.70;;;7.70;76.70;;;;;;5104314;28;20075;-45
2020/12/02 04:12:12;;;;;;;2.00;1.50;;;7.70;76.70;;;;;;5104420;28;20032;-44
2020/12/02 04:14:38;;;;;;;2.22;1.85;;;7.70;76.60;;;;;;5112516;28;20118;-44
2020/12/02 04:17:04;;;;;;;2.33;1.77;;;7.60;76.80;;;;;;5124352;28;20036;-44
2020/12/02 04:19:30;;;;;;;2.08;1.55;;;7.60;76.80;;;;;;5131862;27;20023;-44
2020/12/02 04:21:57;;;;;;;1.83;1.60;;;7.70;76.80;;;;;;5145290;27;20055;-45
2020/12/02 04:24:23;;;;;;;2.28;1.70;;;7.60;76.80;;;;;;5145173;27;20034;-44
2020/12/02 04:26:49;;;;;;;1.73;1.58;;;7.60;76.80;;;;;;5140683;27;20020;-44
2020/12/02 04:29:15;;;;;;;2.10;1.65;;;7.60;76.80;;;;;;5124692;28;20038;-44
2020/12/02 04:31:42;;;;;;;2.33;1.60;;;7.60;76.80;;;;;;5124469;28;20031;-44
2020/12/02 04:34:08;;;;;;;1.50;1.38;;;7.60;76.80;;;;;;5133097;27;20035;-45
2020/12/02 04:36:34;;;;;;;2.45;1.75;;;7.60;76.90;;;;;;5139503;27;20035;-46
2020/12/02 04:39:00;;;;;;;1.60;1.50;;;7.60;76.90;;;;;;5143413;27;20028;-46
2020/12/02 04:41:30;;;;;;;1.60;1.50;;;7.50;76.80;;;;;;5132389;27;20047;-44
2020/12/02 04:43:57;;;;;;;1.92;1.73;;;7.50;76.80;;;;;;5124291;28;20087;-45
2020/12/02 04:46:31;;;;;;;3.03;2.10;;;7.50;76.80;;;;;;5105807;28;20028;-44
2020/12/02 04:49:22;;;;;;;2.88;1.70;;;7.50;76.80;;;;;;5126464;27;20019;-46
2020/12/02 04:51:51;;;;;;;2.83;1.73;;;7.50;76.90;;;;;;5118558;27;20043;-46
2020/12/02 04:54:18;;;;;;;2.67;1.70;;;7.50;76.90;;;;;;5126840;27;20031;-46
2020/12/02 04:56:46;;;;;;;2.03;1.73;;;7.40;76.90;;;;;;5144444;27;20042;-47
2020/12/02 04:59:12;;;;;;;1.85;1.63;;;7.50;76.90;;;;;;5144571;27;20097;-46
2020/12/02 05:02:08;;;;;;;1.73;1.50;;;7.40;76.80;;;;;;5132085;27;20035;-46
2020/12/02 05:04:34;;;;;;;2.65;1.80;;;7.40;76.90;;;;;;5088744;28;20034;-46
2020/12/02 05:07:17;;;;;;;2.85;1.92;;;7.40;76.90;;;;;;5112405;27;20024;-46
2020/12/02 05:09:57;;;;;;;2.22;1.65;;;7.40;76.90;;;;;;5123835;28;20043;-45
2020/12/02 05:12:27;;;;;;;1.95;1.77;;;7.40;77.00;;;;;;5123816;28;20056;-46
2020/12/02 05:14:53;;;;;;;2.03;1.73;;;7.40;76.90;;;;;;5123663;28;20066;-45
2020/12/02 05:17:22;;;;;;;1.90;1.70;;;7.40;77.00;;;;;;5105188;28;20416;-45
2020/12/02 05:20:11;;;;;;;1.92;1.73;;;7.30;76.90;;;;;;5133441;27;20027;-46
2020/12/02 05:22:39;;;;;;;2.47;1.92;;;7.30;76.90;;;;;;5127004;27;20031;-46
2020/12/02 05:25:07;;;;;;;1.85;1.52;;;7.30;77.00;;;;;;5144308;27;20036;-49
2020/12/02 05:27:35;;;;;;;2.97;1.88;;;7.30;77.00;;;;;;5131839;28;20156;-45
2020/12/02 05:30:27;;;;;;;1.90;1.63;;;7.30;77.00;;;;;;5105499;28;20028;-45
2020/12/02 05:33:17;;;;;;;2.05;1.80;;;7.30;77.10;;;;;;5102975;28;20032;-46
2020/12/02 05:36:10;;;;;;;1.83;1.70;;;7.30;77.00;;;;;;5091521;28;20036;-46
2020/12/02 05:38:38;;;;;;;1.98;1.83;;;7.20;76.90;;;;;;5097259;28;20016;-45
2020/12/02 05:41:09;;;;;;;3.10;1.85;;;7.20;77.10;;;;;;5124941;28;20028;-46
2020/12/02 05:43:57;;;;;;;1.73;1.60;;;7.20;77.00;;;;;;5105221;28;20684;-46
2020/12/02 05:46:59;;;;;;;2.85;1.83;;;7.20;77.00;;;;;;5105308;28;20028;-45
2020/12/02 05:49:47;;;;;;;1.83;1.65;;;7.20;77.10;;;;;;5105191;28;20055;-45
2020/12/02 05:52:21;;;;;;;2.72;1.90;;;7.20;77.10;;;;;;5105471;28;20039;-46
2020/12/02 05:54:48;;;;;;;2.10;1.65;;;7.20;77.10;;;;;;5105175;28;20571;-46
2020/12/02 05:57:17;;;;;;;2.38;1.80;;;7.20;77.10;;;;;;5104752;28;20039;-45
2020/12/02 05:59:47;;;;;;;2.33;1.90;;;7.10;77.00;;;;;;5104974;28;20031;-45
2020/12/02 06:02:15;;;;;;;2.75;1.92;;;7.10;77.10;;;;;;5105625;28;20019;-46
2020/12/02 06:04:41;;;;;;;2.95;1.67;;;7.10;77.10;;;;;;5123133;28;20155;-45
2020/12/02 06:07:07;;;;;;;2.10;1.90;;;7.10;77.10;;;;;;5095571;28;20029;-46
2020/12/02 06:09:42;;;;;;;2.20;2.00;;;7.10;77.20;;;;;;5141627;28;20022;-45
2020/12/02 06:12:21;;;;;;;2.25;1.77;;;7.10;77.20;;;;;;5143822;28;20039;-48
2020/12/02 06:14:48;;;;;;;2.55;1.80;;;7.10;77.20;;;;;;5128625;27;20047;-49
2020/12/02 06:17:34;;;;;;;2.30;2.00;;;7.10;77.10;;;;;;5129043;27;20035;-46
2020/12/02 06:20:01;;;;;;;1.75;1.65;;;7.00;77.10;;;;;;5135835;27;20020;-46
2020/12/02 06:22:49;;;;;;;2.75;1.88;;;7.00;77.20;;;;;;5127036;28;20104;-46
2020/12/02 06:25:40;;;;;;;2.45;1.67;;;7.00;77.10;;;;;;5126798;28;20020;-45
2020/12/02 06:28:08;;;;;;;2.20;1.67;;;7.00;77.20;;;;;;5123297;27;20053;-46
2020/12/02 06:30:34;;;;;;;2.55;1.80;;;7.00;77.20;;;;;;5126376;27;20110;-46
2020/12/02 06:33:03;;;;;;;2.60;1.98;;;7.00;77.20;;;;;;5126736;28;20024;-48
2020/12/02 06:35:29;;;;;;;2.58;2.05;;;7.00;77.20;;;;;;5108122;28;20635;-46
2020/12/02 06:38:21;;;;;;;2.13;1.73;;;6.90;77.20;;;;;;5114215;27;20023;-46
2020/12/02 06:41:23;;;;;;;2.42;1.88;;;6.90;77.20;;;;;;5147230;27;20053;-46
2020/12/02 06:44:31;;;;;;;2.42;1.98;;;6.90;77.20;;;;;;5133217;27;20111;-45
2020/12/02 06:47:19;;;;;;;2.05;1.85;;;6.90;77.30;;;;;;5095532;28;20035;-46
2020/12/02 06:49:46;;;;;;;2.20;1.85;;;6.90;77.30;;;;;;5124680;27;20021;-46
2020/12/02 06:52:25;;;;;;;2.22;1.80;;;6.90;77.30;;;;;;5147050;27;20058;-46
2020/12/02 06:55:02;;;;;;;2.47;1.70;;;6.80;77.20;;;;;;5146891;27;20015;-46
2020/12/02 06:57:29;;;;;;;2.42;1.95;;;6.80;78.00;;;;;;5146915;27;20096;-46
2020/12/02 06:59:56;;;;;;;;;;;6.80;77.30;;;;;;5147172;27;20027;-45
2020/12/02 07:02:44;;;;;;;1.98;1.58;;;6.80;77.30;;;;;;5128614;27;19903;-45
2020/12/02 07:05:35;;;;;;;1.83;1.52;;;6.80;77.30;;;;;;5126193;28;20030;-46
2020/12/02 07:08:05;;;;;;;4.32;2.15;;;6.80;77.30;;;;;;5129577;27;20023;-46
2020/12/02 07:10:32;;;;;;;1.85;1.65;;;6.80;77.30;;;;;;5146532;27;20030;-46
2020/12/02 07:12:58;;;;;;;3.00;2.10;;;6.80;77.40;;;;;;5146459;27;20069;-46
2020/12/02 07:15:24;;;;;;;1.98;1.80;;;6.80;77.40;;;;;;5131355;27;20043;-46
2020/12/02 07:17:50;;;;;;;2.05;1.85;;;6.70;77.30;;;;;;5125508;28;20097;-46
2020/12/02 07:20:17;;;;;;;2.53;2.10;;;6.70;77.30;;;;;;5111891;28;20028;-45
2020/12/02 07:22:54;;;;;;;2.30;1.92;;;6.70;77.40;;;;;;5106951;28;20032;-46
2020/12/02 07:25:22;;;;;;;2.57;1.77;;;6.70;77.50;;;;;;5097902;28;20036;-46
2020/12/02 07:27:48;;;;;;;2.63;2.15;;;6.70;77.50;;;;;;5117538;28;20275;-46
2020/12/02 07:30:27;;;;;;;2.55;2.08;;;6.70;77.50;;;;;;5125377;28;20082;-46
2020/12/02 07:32:54;;;;;;;2.33;2.08;;;6.70;77.50;;;;;;5083167;28;20063;-45
2020/12/02 07:35:22;;;;;;;2.15;1.95;;;6.70;77.50;;;;;;5084673;28;20039;-51
2020/12/02 07:37:49;;;;;;;2.25;2.05;;;6.60;77.40;;;;;;5105976;28;20038;-45
2020/12/02 07:40:28;;;;;;;2.25;2.00;;;6.60;77.40;;;;;;5123723;28;20031;-45
2020/12/02 07:42:54;;;;;;;2.45;1.90;;;6.60;77.50;;;;;;5125239;28;20055;-47
2020/12/02 07:45:23;;;;;;;2.22;1.90;;;6.60;77.50;;;;;;5125209;28;20575;-46
2020/12/02 07:47:58;;;;;;;2.58;2.30;;;6.60;77.50;;;;;;5096757;28;20020;-46
2020/12/02 07:50:46;;;;;;;2.10;1.88;;;6.60;77.50;;;;;;5106724;28;20024;-46
2020/12/02 07:53:15;;;;;;;2.10;1.90;;;6.60;77.50;;;;;;5104395;28;20024;-46
2020/12/02 07:55:44;;;;;;;2.55;1.85;;;6.60;77.50;;;;;;5104558;28;20083;-46
2020/12/02 07:58:29;;;;;;;2.03;1.83;;;6.60;77.50;;;;;;5104396;28;20032;-46
2020/12/02 08:00:56;;;;;;;1.85;1.70;;;6.60;77.50;;;;;;5103432;28;20084;-46
2020/12/02 08:03:33;;;;;;;2.17;1.90;;;6.50;77.50;;;;;;5120204;27;20588;-46
2020/12/02 08:06:20;;;;;;;;;;;6.50;77.60;;;;;;5101678;28;20035;-46
2020/12/02 08:08:46;;;;;;;3.17;2.28;;;6.50;77.60;;;;;;5094706;28;19914;-47
2020/12/02 08:11:16;;;;;;;2.17;1.95;;;6.50;77.60;;;;;;5104271;28;20100;-46
2020/12/02 08:13:48;;;;;;;2.88;1.70;;;6.50;77.60;;;;;;5102802;28;20028;-46
2020/12/02 08:16:41;;;;;;;2.20;2.00;;;6.50;77.60;;;;;;5124551;28;20035;-46
2020/12/02 08:19:09;;;;;;;2.40;2.10;;;6.50;77.60;;;;;;5109682;27;20103;-46
2020/12/02 08:21:35;;;;;;;2.92;2.05;;;6.50;77.60;;;;;;5145056;27;20052;-46
2020/12/02 08:24:21;;;;;;;2.45;2.03;;;6.40;77.50;;;;;;5126595;27;20019;-46
2020/12/02 08:26:47;;;;;;;2.15;1.90;;;6.50;77.60;;;;;;5110285;28;20051;-46
2020/12/02 08:29:17;;;;;;;3.25;2.38;;;6.40;77.60;;;;;;5089075;28;20023;-45
2020/12/02 08:31:43;;;;;;;2.20;1.98;;;6.40;77.60;;;;;;5105701;28;20034;-45
2020/12/02 08:34:36;;;;;;;2.47;2.05;;;6.40;77.70;;;;;;5105630;28;20097;-45
2020/12/02 08:37:11;;;;;;;2.75;1.90;;;6.40;77.70;;;;;;5110421;28;20047;-45
2020/12/02 08:39:39;;;;;;;2.28;1.85;;;6.40;77.70;;;;;;5103860;28;20086;-46
2020/12/02 08:42:05;;;;;;;2.83;2.28;;;6.30;77.70;;;;;;5085501;28;20123;-45
2020/12/02 08:44:31;;;;;;;2.15;1.85;;;6.40;77.70;;;;;;5103488;28;20051;-46
2020/12/02 08:46:59;;;;;;;2.40;1.80;;;6.30;77.60;;;;;;5124210;27;20035;-45
2020/12/02 08:49:28;;;;;;;2.30;1.88;;;6.30;77.70;;;;;;5110561;27;20027;-47
2020/12/02 08:51:54;;;;;;;2.20;1.98;;;6.30;77.70;;;;;;5123809;28;20024;-45
2020/12/02 08:54:25;;;;;;;2.13;1.92;;;6.30;77.70;;;;;;5123836;28;20089;-46
2020/12/02 08:56:57;;;;;;;2.58;1.90;;;6.30;77.70;;;;;;5123634;28;20480;-45
2020/12/02 08:59:24;;;;;;;2.60;1.90;;;6.30;77.70;;;;;;5105144;28;20024;-45
2020/12/02 09:01:50;;;;;;;2.00;1.80;;;6.30;77.80;;;;;;5110574;28;20032;-46
2020/12/02 09:04:16;;;;;;;2.05;1.85;;;6.30;77.70;;;;;;5111623;27;20030;-45
2020/12/02 09:06:43;;;;;;;1.75;1.55;;;6.20;77.70;;;;;;5129845;27;20489;-45
2020/12/02 09:09:09;;;;;;;2.33;1.85;;;6.20;77.70;;;;;;5085127;28;20688;-46
2020/12/02 09:11:37;;;;;;;2.10;1.90;;;6.20;77.70;;;;;;5084802;28;20032;-45
2020/12/02 09:14:04;;;;;;;2.70;2.15;;;6.20;77.70;;;;;;5103055;28;20703;-46
2020/12/02 09:16:32;;;;;;;2.60;2.40;;;6.20;77.70;;;;;;5103081;28;20135;-46
2020/12/02 09:18:59;;;;;;;2.00;1.80;;;6.20;77.70;;;;;;5134687;27;20095;-45
2020/12/02 09:21:26;;;;;;;2.43;2.13;;;6.20;77.80;;;;;;5108488;28;20055;-45
2020/12/02 09:23:53;;;;;;;2.65;2.00;;;6.20;77.70;;;;;;5105355;28;20043;-46
2020/12/02 09:26:20;;;;;;;2.53;2.13;;;6.20;77.80;;;;;;5123474;28;20495;-45
2020/12/02 09:28:47;;;;;;;2.13;1.90;;;6.10;77.80;;;;;;5102685;28;20277;-46
2020/12/02 09:31:13;;;;;;;2.20;2.00;;;6.20;77.80;;;;;;5111101;28;20030;-45
2020/12/02 09:33:40;;;;;;;2.83;2.25;;;6.20;77.80;;;;;;5123104;28;20032;-46
2020/12/02 09:36:06;;;;;;;2.05;1.70;;;6.20;77.80;;;;;;5101023;28;20046;-45
2020/12/02 09:38:32;;;;;;;2.35;2.03;;;6.10;77.90;;;;;;5102663;28;20016;-46
2020/12/02 09:41:03;;;;;;;1.87;1.73;;;6.10;77.90;;;;;;5115560;28;20035;-45
2020/12/02 09:43:53;;;;;;;1.77;1.65;;;6.10;77.80;;;;;;5117486;28;20031;-45
2020/12/02 09:46:19;;;;;;;2.90;2.13;;;6.10;77.90;;;;;;5104896;28;20031;-46
2020/12/02 09:48:47;;;;;;;2.78;2.10;;;6.10;77.90;;;;;;5094274;27;20086;-45
2020/12/02 09:51:29;;;;;;;2.90;2.05;;;6.10;77.90;;;;;;5127418;28;20036;-45
2020/12/02 09:53:56;;;;;;;2.65;2.08;;;6.10;77.90;;;;;;5127367;28;20074;-45
2020/12/02 09:56:22;;;;;;;;;;;6.00;77.90;;;;;;5127560;28;20035;-45
2020/12/02 09:58:48;;;;;;;2.15;1.80;;;6.00;77.80;;;;;;5126915;28;20017;-45
2020/12/02 10:01:33;;;;;;;2.70;2.10;;;6.00;77.80;;;;;;5127144;28;20061;-46
2020/12/02 10:04:24;;;;;;;2.35;1.83;;;6.00;77.90;;;;;;5093565;28;20035;-45
2020/12/02 10:07:07;;;;;;;2.45;1.88;;;6.00;77.90;;;;;;5116736;28;20031;-46
2020/12/02 10:09:45;;;;;;;2.88;2.13;;;6.00;77.90;;;;;;5120301;28;20092;-46
2020/12/02 10:12:30;;;;;;;2.45;2.20;;;6.00;77.90;;;;;;5122203;28;20059;-46
2020/12/02 10:15:39;;;;;;;2.42;1.90;;;6.00;78.00;;;;;;5121057;28;20044;-45
2020/12/02 10:18:15;;;;;;;1.98;1.50;;;6.00;78.00;;;;;;5026823;28;20040;-46
2020/12/02 10:20:43;;;;;;;2.30;1.80;;;5.90;77.90;;;;;;5060294;28;20025;-46
2020/12/02 10:23:18;;;;;;;3.25;1.95;;;5.90;78.00;;;;;;5083589;28;20020;-48
2020/12/02 10:26:21;;;;;;;2.20;2.00;;;5.90;78.00;;;;;;5083017;28;20866;-45
2020/12/02 10:28:58;;;;;;;1.60;1.50;;;5.90;78.00;;;;;;5042952;28;20040;-46
2020/12/02 10:31:30;;;;;;;2.13;1.80;;;5.90;78.00;;;;;;5052034;28;20726;-45
2020/12/02 10:34:20;;;;;;;2.40;1.80;;;5.90;78.00;;;;;;5063086;28;20029;-46
2020/12/02 10:36:51;;;;;;;2.30;2.10;;;5.90;78.00;;;;;;5046779;28;20071;-46
2020/12/02 10:39:23;;;;;;;2.47;1.98;;;5.90;78.00;;;;;;5062930;28;20227;-45
2020/12/02 10:42:26;;;;;;;2.15;1.95;;;5.90;78.00;;;;;;5056544;28;20063;-46
2020/12/02 10:44:58;;;;;;;2.20;2.00;;;5.80;78.10;;;;;;5043098;28;20092;-45
2020/12/02 10:47:43;;;;;;;2.20;2.00;;;5.80;78.10;;;;;;5026537;28;20022;-47
2020/12/02 10:50:09;;;;;;;2.33;1.95;;;5.80;78.00;;;;;;5067609;28;20278;-45
2020/12/02 10:52:35;;;;;;;2.13;1.70;;;5.80;78.10;;;;;;5131356;27;20035;-45
2020/12/02 10:55:02;;;;;;;2.20;2.00;;;5.80;78.10;;;;;;5128186;27;20410;-46
2020/12/02 10:57:28;;;;;;;2.47;1.97;;;5.80;78.00;;;;;;5146634;27;20657;-46
2020/12/02 10:59:55;;;;;;;2.00;1.80;;;5.80;78.10;;;;;;5145234;27;20053;-46
2020/12/02 11:02:24;;;;;;;2.00;1.80;;;5.80;78.10;;;;;;5143454;27;20019;-45
2020/12/02 11:04:50;;;;;;;2.30;1.90;;;5.80;78.10;;;;;;5146436;27;20027;-46
2020/12/02 11:07:30;;;;;;;2.08;1.70;;;5.70;78.10;;;;;;5122458;27;20024;-45
2020/12/02 11:10:18;;;;;;;2.55;1.92;;;5.80;78.20;;;;;;5089338;27;20074;-46
2020/12/02 11:12:54;;;;;;;;;;;5.70;78.00;;;;;;5087600;28;20061;-45
2020/12/02 11:15:29;;;;;;;2.13;1.85;;;5.70;78.10;;;;;;5105058;28;19927;-46
2020/12/02 11:18:20;;;;;;;2.38;1.80;;;5.70;78.10;;;;;;5116684;27;20023;-48
2020/12/02 11:20:48;;;;;;;2.10;1.90;;;5.70;78.20;;;;;;5112298;28;20065;-45
2020/12/02 11:23:33;;;;;;;2.03;1.80;;;5.70;78.20;;;;;;5107529;28;20024;-46
2020/12/02 11:26:10;;;;;;;1.95;1.77;;;5.70;78.20;;;;;;5125660;28;20035;-46
2020/12/02 11:28:41;;;;;;;1.88;1.30;;;5.70;78.20;;;;;;5145107;27;20072;-45
2020/12/02 11:31:25;;;;;;;2.00;1.80;;;5.70;78.20;;;;;;5123170;27;20030;-45
2020/12/02 11:34:07;;;;;;;3.00;2.10;;;5.70;78.20;;;;;;5127938;27;20076;-45
2020/12/02 11:36:44;;;;;;;2.97;2.00;;;5.60;78.10;;;;;;5133692;27;20060;-45
2020/12/02 11:39:29;;;;;;;2.10;1.90;;;5.60;78.20;;;;;;5105062;28;20024;-45
2020/12/02 11:41:55;;;;;;;1.58;1.48;;;5.60;78.20;;;;;;5124922;28;20045;-46
2020/12/02 11:44:46;;;;;;;1.77;1.67;;;5.60;78.20;;;;;;5124895;28;20027;-45
2020/12/02 11:47:13;;;;;;;2.63;1.90;;;5.60;78.20;;;;;;5110621;27;20047;-45
2020/12/02 11:49:39;;;;;;;2.53;1.88;;;5.60;78.20;;;;;;5114966;27;20038;-45
2020/12/02 11:52:49;;;;;;;2.38;2.13;;;5.60;78.20;;;;;;5145500;27;20027;-45
2020/12/02 11:55:18;;;;;;;2.45;1.90;;;5.60;78.30;;;;;;5129591;27;20042;-46
2020/12/02 11:57:55;;;;;;;2.28;2.00;;;5.60;78.30;;;;;;5145432;27;20050;-46
2020/12/02 12:00:21;;;;;;;1.38;1.20;;;5.50;78.10;;;;;;5126006;27;20189;-45
2020/12/02 12:03:19;;;;;;;2.40;1.95;;;5.50;78.30;;;;;;5124210;27;20040;-46
2020/12/02 12:06:10;;;;;;;2.00;1.80;;;5.50;78.30;;;;;;5092656;28;20054;-46
2020/12/02 12:08:56;;;;;;;2.60;2.00;;;5.50;78.20;;;;;;5104363;28;20030;-45
2020/12/02 12:11:28;;;;;;;2.25;1.95;;;5.50;78.20;;;;;;5085680;28;20032;-45
2020/12/02 12:13:58;;;;;;;1.95;1.77;;;5.50;78.20;;;;;;5085496;28;20037;-47
2020/12/02 12:16:57;;;;;;;2.35;2.10;;;5.50;78.20;;;;;;5103997;28;20039;-45
2020/12/02 12:19:33;;;;;;;3.70;2.00;;;5.50;78.20;;;;;;5116427;27;20091;-45
2020/12/02 12:22:06;;;;;;;1.88;1.63;;;5.50;78.30;;;;;;5126449;27;20035;-45
2020/12/02 12:24:32;;;;;;;2.13;1.73;;;5.50;78.30;;;;;;5126511;27;20083;-45
2020/12/02 12:26:58;;;;;;;2.10;1.90;;;5.50;78.30;;;;;;5139031;27;20108;-45
2020/12/02 12:29:24;;;;;;;2.25;1.98;;;5.50;78.30;;;;;;5124341;28;20406;-46
2020/12/02 12:31:56;;;;;;;2.13;1.92;;;5.40;78.20;;;;;;5123893;28;20024;-46
2020/12/02 12:34:58;;;;;;;2.42;1.90;;;5.40;78.20;;;;;;5105686;28;20042;-46
2020/12/02 12:37:27;;;;;;;2.17;1.95;;;5.40;78.10;;;;;;5093071;28;20065;-45
2020/12/02 12:39:58;;;;;;;2.00;1.77;;;5.40;78.20;;;;;;5122969;27;20146;-46
2020/12/02 12:42:25;;;;;;;2.55;2.08;;;5.40;78.20;;;;;;5105488;28;20068;-45
2020/12/02 12:44:51;;;;;;;1.58;1.48;;;5.40;78.30;;;;;;5088664;28;20053;-46
2020/12/02 12:47:21;;;;;;;2.90;2.10;;;5.40;78.20;;;;;;5088646;28;20059;-45
2020/12/02 12:49:47;;;;;;;2.20;2.00;;;5.40;78.20;;;;;;5105294;28;20020;-45
2020/12/02 12:52:16;;;;;;;2.20;1.65;;;5.40;78.20;;;;;;5123653;28;20024;-48
2020/12/02 12:54:43;;;;;;;2.13;1.92;;;5.40;78.20;;;;;;5123812;28;20023;-45
2020/12/02 12:57:20;;;;;;;2.90;1.80;;;5.40;78.20;;;;;;5123809;28;20081;-45
2020/12/02 12:59:46;;;;;;;2.40;2.20;;;5.30;78.90;;;;;;5123686;28;20080;-44
2020/12/02 13:02:21;;;;;;;2.17;1.98;;;5.30;78.20;;;;;;5123121;28;20555;-45
2020/12/02 13:04:48;;;;;;;3.45;2.00;;;5.30;78.20;;;;;;5105333;28;20035;-45
2020/12/02 13:07:22;;;;;;;1.80;1.70;;;5.30;78.20;;;;;;5110064;28;20024;-53
2020/12/02 13:10:01;;;;;;;2.28;2.08;;;5.30;78.20;;;;;;5100513;28;20438;-45
2020/12/02 13:12:37;;;;;;;2.28;2.08;;;5.30;78.30;;;;;;5118500;28;20563;-44
2020/12/02 13:15:06;;;;;;;2.30;1.88;;;5.30;78.20;;;;;;5100099;28;20056;-45
2020/12/02 13:17:33;;;;;;;2.30;1.88;;;5.30;78.20;;;;;;5140143;27;20057;-45
2020/12/02 13:20:04;;;;;;;2.15;1.95;;;5.30;78.10;;;;;;5132578;27;20076;-45
2020/12/02 13:22:50;;;;;;;1.80;1.58;;;5.30;78.10;;;;;;5104519;28;20036;-45
2020/12/02 13:25:18;;;;;;;2.15;1.90;;;5.20;78.20;;;;;;5104962;28;20048;-46